PHKAY EGHQ-EGHH
Flight info
| Callsign | PHKAY |
|---|---|
| Flight time | 1h 10m |
| Altitude | 2500 |
| Route | EGHA EGHD |
| Aircraft | BE58/L-VGDW/C |
Departure
| Time | 2026-05-05 18:29 |
|---|---|
| Airport | Cornwall Airport Newquay (EGHQ) |
Arrival
| Time | 2026-05-05 19:40 |
|---|---|
| Airport | Bournemouth Airport (EGHH) |
| Time | Latitude | Longitude | Altitude | Speed | Heading |
|---|---|---|---|---|---|
| 2026-05-05 18:10 | 50.44430 | -4.99763 | 393 ft | 0 kts | 156° |
| 2026-05-05 18:18 | 50.44429 | -4.99762 | 393 ft | 1 kts | 156° |
| 2026-05-05 18:19 | 50.44404 | -4.99749 | 393 ft | 5 kts | 198° |
| 2026-05-05 18:19 | 50.44377 | -4.99795 | 393 ft | 7 kts | 127° |
| 2026-05-05 18:19 | 50.44299 | -4.99589 | 393 ft | 23 kts | 118° |
| 2026-05-05 18:19 | 50.44262 | -4.99490 | 393 ft | 6 kts | 126° |
| 2026-05-05 18:20 | 50.44247 | -4.99488 | 393 ft | 0 kts | 182° |
| 2026-05-05 18:20 | 50.44191 | -4.99490 | 393 ft | 13 kts | 182° |
| 2026-05-05 18:20 | 50.44163 | -4.99492 | 393 ft | 0 kts | 182° |
| 2026-05-05 18:26 | 50.44162 | -4.99492 | 393 ft | 1 kts | 182° |
| 2026-05-05 18:27 | 50.44072 | -4.99500 | 393 ft | 8 kts | 197° |
| 2026-05-05 18:27 | 50.44070 | -4.99516 | 393 ft | 0 kts | 301° |
| 2026-05-05 18:28 | 50.44120 | -4.99656 | 393 ft | 45 kts | 301° |
| 2026-05-05 18:28 | 50.44365 | -5.00300 | 393 ft | 91 kts | 301° |
| 2026-05-05 18:29 | 50.44745 | -5.01322 | 447 ft | 118 kts | 303° |
| 2026-05-05 18:29 | 50.45154 | -5.02437 | 749 ft | 118 kts | 310° |
| 2026-05-05 18:29 | 50.45787 | -5.02911 | 1286 ft | 104 kts | 2° |
| 2026-05-05 18:29 | 50.46466 | -5.02156 | 1303 ft | 141 kts | 54° |
| 2026-05-05 18:30 | 50.46618 | -5.00547 | 1404 ft | 157 kts | 95° |
| 2026-05-05 18:30 | 50.46344 | -4.98934 | 1757 ft | 148 kts | 98° |
| 2026-05-05 18:30 | 50.46173 | -4.97398 | 2044 ft | 149 kts | 99° |
| 2026-05-05 18:30 | 50.45864 | -4.95653 | 1995 ft | 167 kts | 102° |
| 2026-05-05 18:31 | 50.45533 | -4.93854 | 2010 ft | 179 kts | 102° |
| 2026-05-05 18:31 | 50.45182 | -4.91926 | 2053 ft | 185 kts | 102° |
| 2026-05-05 18:31 | 50.44820 | -4.89929 | 1992 ft | 194 kts | 102° |
| 2026-05-05 18:31 | 50.44445 | -4.87848 | 1992 ft | 194 kts | 102° |
| 2026-05-05 18:32 | 50.44196 | -4.85823 | 2173 ft | 185 kts | 93° |
| 2026-05-05 18:32 | 50.44047 | -4.83835 | 2332 ft | 182 kts | 92° |
| 2026-05-05 18:32 | 50.43901 | -4.81840 | 2495 ft | 181 kts | 92° |
| 2026-05-05 18:32 | 50.43780 | -4.80182 | 2634 ft | 180 kts | 92° |
| 2026-05-05 18:33 | 50.43634 | -4.78208 | 2799 ft | 180 kts | 92° |
| 2026-05-05 18:33 | 50.43487 | -4.76230 | 2964 ft | 180 kts | 92° |
| 2026-05-05 18:33 | 50.43341 | -4.74276 | 3130 ft | 180 kts | 92° |
| 2026-05-05 18:33 | 50.43203 | -4.72307 | 3297 ft | 179 kts | 89° |
| 2026-05-05 18:34 | 50.43168 | -4.70332 | 3452 ft | 179 kts | 86° |
| 2026-05-05 18:34 | 50.43145 | -4.68347 | 3614 ft | 179 kts | 87° |
| 2026-05-05 18:34 | 50.43128 | -4.66366 | 3702 ft | 184 kts | 86° |
| 2026-05-05 18:34 | 50.43116 | -4.64323 | 3675 ft | 190 kts | 86° |
| 2026-05-05 18:35 | 50.43106 | -4.62225 | 3683 ft | 192 kts | 86° |
| 2026-05-05 18:35 | 50.43097 | -4.60115 | 3668 ft | 194 kts | 86° |
| 2026-05-05 18:35 | 50.43087 | -4.57990 | 3673 ft | 194 kts | 86° |
| 2026-05-05 18:35 | 50.43078 | -4.55853 | 3658 ft | 195 kts | 86° |
| 2026-05-05 18:36 | 50.43069 | -4.53713 | 3660 ft | 195 kts | 86° |
| 2026-05-05 18:36 | 50.43059 | -4.51571 | 3650 ft | 195 kts | 86° |
| 2026-05-05 18:36 | 50.43050 | -4.49417 | 3668 ft | 195 kts | 86° |
| 2026-05-05 18:36 | 50.43041 | -4.47232 | 3677 ft | 197 kts | 86° |
| 2026-05-05 18:37 | 50.43031 | -4.45059 | 3779 ft | 193 kts | 86° |
| 2026-05-05 18:37 | 50.43020 | -4.42961 | 3932 ft | 190 kts | 86° |
| 2026-05-05 18:37 | 50.43007 | -4.40861 | 4053 ft | 190 kts | 86° |
| 2026-05-05 18:37 | 50.42995 | -4.38735 | 4009 ft | 197 kts | 86° |
| 2026-05-05 18:38 | 50.42984 | -4.36530 | 4040 ft | 198 kts | 86° |
| 2026-05-05 18:38 | 50.42973 | -4.34087 | 4009 ft | 200 kts | 87° |
| 2026-05-05 18:38 | 50.42963 | -4.31835 | 4018 ft | 200 kts | 87° |
| 2026-05-05 18:38 | 50.42954 | -4.29639 | 4000 ft | 201 kts | 87° |
| 2026-05-05 18:39 | 50.42942 | -4.27388 | 4003 ft | 201 kts | 87° |
| 2026-05-05 18:39 | 50.42928 | -4.25142 | 3990 ft | 201 kts | 87° |
| 2026-05-05 18:39 | 50.42913 | -4.22936 | 3991 ft | 200 kts | 87° |
| 2026-05-05 18:39 | 50.42895 | -4.20745 | 3983 ft | 200 kts | 87° |
| 2026-05-05 18:40 | 50.42875 | -4.18533 | 3980 ft | 199 kts | 87° |
| 2026-05-05 18:40 | 50.42854 | -4.16300 | 3974 ft | 199 kts | 87° |
| 2026-05-05 18:40 | 50.42831 | -4.14120 | 3969 ft | 199 kts | 87° |
| 2026-05-05 18:40 | 50.42806 | -4.11926 | 3964 ft | 198 kts | 87° |
| 2026-05-05 18:41 | 50.42781 | -4.09753 | 3959 ft | 198 kts | 87° |
| 2026-05-05 18:41 | 50.42753 | -4.07569 | 3955 ft | 197 kts | 87° |
| 2026-05-05 18:41 | 50.42725 | -4.05407 | 3951 ft | 197 kts | 87° |
| 2026-05-05 18:41 | 50.42697 | -4.03237 | 3951 ft | 197 kts | 87° |
| 2026-05-05 18:42 | 50.42668 | -4.01078 | 3951 ft | 196 kts | 87° |
| 2026-05-05 18:42 | 50.42658 | -3.98926 | 3949 ft | 195 kts | 82° |
| 2026-05-05 18:42 | 50.43005 | -3.96895 | 3915 ft | 190 kts | 60° |
| 2026-05-05 18:42 | 50.43634 | -3.95096 | 3993 ft | 185 kts | 55° |
| 2026-05-05 18:43 | 50.44289 | -3.93332 | 3939 ft | 188 kts | 55° |
| 2026-05-05 18:43 | 50.44954 | -3.91553 | 3967 ft | 187 kts | 54° |
| 2026-05-05 18:43 | 50.45624 | -3.89762 | 3948 ft | 188 kts | 54° |
| 2026-05-05 18:43 | 50.46283 | -3.87997 | 3985 ft | 186 kts | 54° |
| 2026-05-05 18:44 | 50.46934 | -3.86252 | 3974 ft | 187 kts | 54° |
| 2026-05-05 18:44 | 50.47595 | -3.84480 | 3986 ft | 187 kts | 54° |
| 2026-05-05 18:44 | 50.48257 | -3.82707 | 3979 ft | 187 kts | 54° |
| 2026-05-05 18:44 | 50.48910 | -3.80955 | 3983 ft | 187 kts | 54° |
| 2026-05-05 18:45 | 50.49579 | -3.79159 | 3980 ft | 188 kts | 54° |
| 2026-05-05 18:45 | 50.50240 | -3.77385 | 3981 ft | 188 kts | 54° |
| 2026-05-05 18:45 | 50.50917 | -3.75567 | 3980 ft | 188 kts | 54° |
| 2026-05-05 18:45 | 50.51581 | -3.73786 | 3981 ft | 188 kts | 54° |
| 2026-05-05 18:46 | 50.52257 | -3.71971 | 3981 ft | 188 kts | 54° |
| 2026-05-05 18:46 | 50.52931 | -3.70160 | 3981 ft | 188 kts | 54° |
| 2026-05-05 18:46 | 50.53608 | -3.68338 | 3981 ft | 188 kts | 54° |
| 2026-05-05 18:46 | 50.54281 | -3.66529 | 3980 ft | 188 kts | 54° |
| 2026-05-05 18:47 | 50.54941 | -3.64755 | 3981 ft | 188 kts | 54° |
| 2026-05-05 18:47 | 50.55612 | -3.62949 | 3980 ft | 188 kts | 54° |
| 2026-05-05 18:47 | 50.56279 | -3.61153 | 3980 ft | 188 kts | 54° |
| 2026-05-05 18:47 | 50.56949 | -3.59349 | 3980 ft | 188 kts | 54° |
| 2026-05-05 18:48 | 50.57614 | -3.57558 | 3978 ft | 184 kts | 54° |
| 2026-05-05 18:48 | 50.58241 | -3.55849 | 3881 ft | 175 kts | 54° |
| 2026-05-05 18:48 | 50.58833 | -3.54229 | 3884 ft | 164 kts | 54° |
| 2026-05-05 18:48 | 50.59397 | -3.52675 | 3911 ft | 161 kts | 54° |
| 2026-05-05 18:49 | 50.59944 | -3.51154 | 3972 ft | 159 kts | 54° |
| 2026-05-05 18:49 | 50.60495 | -3.49619 | 3973 ft | 160 kts | 54° |
| 2026-05-05 18:49 | 50.61045 | -3.48083 | 3895 ft | 160 kts | 54° |
| 2026-05-05 18:49 | 50.61611 | -3.46522 | 3665 ft | 162 kts | 53° |
| 2026-05-05 18:50 | 50.62481 | -3.45457 | 3353 ft | 160 kts | 17° |
| 2026-05-05 18:50 | 50.63530 | -3.44959 | 3272 ft | 151 kts | 12° |
| 2026-05-05 18:50 | 50.64584 | -3.44518 | 3029 ft | 155 kts | 12° |
| 2026-05-05 18:50 | 50.65632 | -3.44190 | 2822 ft | 154 kts | 356° |
| 2026-05-05 18:51 | 50.66600 | -3.44824 | 2464 ft | 156 kts | 318° |
| 2026-05-05 18:51 | 50.67255 | -3.46137 | 2282 ft | 148 kts | 308° |
| 2026-05-05 18:51 | 50.67853 | -3.47506 | 2010 ft | 148 kts | 307° |
| 2026-05-05 18:51 | 50.68551 | -3.48691 | 1727 ft | 146 kts | 325° |
| 2026-05-05 18:52 | 50.69392 | -3.49522 | 1501 ft | 142 kts | 341° |
| 2026-05-05 18:52 | 50.70330 | -3.49890 | 1428 ft | 128 kts | 355° |
| 2026-05-05 18:52 | 50.71186 | -3.49971 | 1421 ft | 117 kts | 358° |
| 2026-05-05 18:52 | 50.71909 | -3.49540 | 1426 ft | 108 kts | 43° |
| 2026-05-05 18:53 | 50.72175 | -3.48447 | 1380 ft | 109 kts | 73° |
| 2026-05-05 18:53 | 50.72406 | -3.47169 | 1046 ft | 122 kts | 70° |
| 2026-05-05 18:53 | 50.72630 | -3.45939 | 614 ft | 117 kts | 69° |
| 2026-05-05 18:53 | 50.72847 | -3.44830 | 442 ft | 94 kts | 68° |
| 2026-05-05 18:54 | 50.73024 | -3.43810 | 283 ft | 96 kts | 71° |
| 2026-05-05 18:54 | 50.73201 | -3.42797 | 117 ft | 90 kts | 70° |
| 2026-05-05 18:54 | 50.73341 | -3.41940 | 89 ft | 74 kts | 75° |
| 2026-05-05 18:54 | 50.73482 | -3.41009 | 180 ft | 89 kts | 72° |
| 2026-05-05 18:55 | 50.73621 | -3.40051 | 346 ft | 91 kts | 72° |
| 2026-05-05 18:55 | 50.73787 | -3.39077 | 633 ft | 93 kts | 69° |
| 2026-05-05 18:55 | 50.73933 | -3.37993 | 863 ft | 109 kts | 76° |
| 2026-05-05 18:55 | 50.73965 | -3.36713 | 1160 ft | 119 kts | 92° |
| 2026-05-05 18:56 | 50.73766 | -3.35491 | 1577 ft | 106 kts | 98° |
| 2026-05-05 18:56 | 50.73615 | -3.34297 | 1831 ft | 111 kts | 96° |
| 2026-05-05 18:56 | 50.73382 | -3.32918 | 1805 ft | 136 kts | 101° |
| 2026-05-05 18:56 | 50.73101 | -3.31382 | 1767 ft | 154 kts | 102° |
| 2026-05-05 18:57 | 50.72802 | -3.29704 | 1874 ft | 164 kts | 102° |
| 2026-05-05 18:57 | 50.72478 | -3.27854 | 1834 ft | 180 kts | 102° |
| 2026-05-05 18:57 | 50.72144 | -3.25919 | 1860 ft | 186 kts | 101° |
| 2026-05-05 18:57 | 50.71999 | -3.23827 | 1788 ft | 189 kts | 89° |
| 2026-05-05 18:58 | 50.71936 | -3.21795 | 1939 ft | 184 kts | 90° |
| 2026-05-05 18:58 | 50.71839 | -3.19741 | 1990 ft | 185 kts | 91° |
| 2026-05-05 18:58 | 50.71739 | -3.17696 | 2024 ft | 187 kts | 91° |
| 2026-05-05 18:58 | 50.71638 | -3.15609 | 2011 ft | 190 kts | 91° |
| 2026-05-05 18:59 | 50.71537 | -3.13514 | 2015 ft | 191 kts | 91° |
| 2026-05-05 18:59 | 50.71434 | -3.11395 | 2002 ft | 191 kts | 91° |
| 2026-05-05 18:59 | 50.71333 | -3.09295 | 2000 ft | 192 kts | 91° |
| 2026-05-05 18:59 | 50.71230 | -3.07190 | 2001 ft | 192 kts | 91° |
| 2026-05-05 19:00 | 50.71127 | -3.05075 | 2001 ft | 192 kts | 91° |
| 2026-05-05 19:00 | 50.71023 | -3.02965 | 2002 ft | 192 kts | 91° |
| 2026-05-05 19:00 | 50.70917 | -3.00834 | 2001 ft | 192 kts | 91° |
| 2026-05-05 19:00 | 50.70811 | -2.98719 | 2002 ft | 192 kts | 91° |
| 2026-05-05 19:01 | 50.70703 | -2.96629 | 1959 ft | 185 kts | 91° |
| 2026-05-05 19:01 | 50.70599 | -2.94648 | 1938 ft | 176 kts | 91° |
| 2026-05-05 19:01 | 50.70495 | -2.92746 | 1952 ft | 171 kts | 91° |
| 2026-05-05 19:01 | 50.70392 | -2.90878 | 1930 ft | 170 kts | 91° |
| 2026-05-05 19:02 | 50.70287 | -2.89047 | 1977 ft | 166 kts | 91° |
| 2026-05-05 19:02 | 50.70181 | -2.87209 | 1967 ft | 166 kts | 91° |
| 2026-05-05 19:02 | 50.70073 | -2.85425 | 1891 ft | 157 kts | 91° |
| 2026-05-05 19:02 | 50.69968 | -2.83775 | 1903 ft | 142 kts | 91° |
| 2026-05-05 19:03 | 50.69636 | -2.82346 | 1966 ft | 139 kts | 115° |
| 2026-05-05 19:03 | 50.69114 | -2.80999 | 2001 ft | 153 kts | 117° |
| 2026-05-05 19:03 | 50.68532 | -2.79522 | 2101 ft | 159 kts | 118° |
| 2026-05-05 19:03 | 50.67918 | -2.77956 | 2044 ft | 171 kts | 118° |
| 2026-05-05 19:04 | 50.67291 | -2.76350 | 2093 ft | 174 kts | 118° |
| 2026-05-05 19:04 | 50.66642 | -2.74688 | 1975 ft | 176 kts | 118° |
| 2026-05-05 19:04 | 50.66019 | -2.73089 | 1992 ft | 168 kts | 118° |
| 2026-05-05 19:04 | 50.65407 | -2.71523 | 1977 ft | 165 kts | 118° |
| 2026-05-05 19:05 | 50.64800 | -2.69969 | 1965 ft | 163 kts | 118° |
| 2026-05-05 19:05 | 50.64227 | -2.68516 | 1892 ft | 152 kts | 117° |
| 2026-05-05 19:05 | 50.63731 | -2.67159 | 1946 ft | 135 kts | 115° |
| 2026-05-05 19:05 | 50.63272 | -2.65890 | 1961 ft | 125 kts | 115° |
| 2026-05-05 19:06 | 50.62840 | -2.64708 | 1967 ft | 119 kts | 115° |
| 2026-05-05 19:06 | 50.62431 | -2.63599 | 2010 ft | 118 kts | 115° |
| 2026-05-05 19:06 | 50.62012 | -2.62459 | 2032 ft | 122 kts | 115° |
| 2026-05-05 19:06 | 50.61578 | -2.61271 | 2045 ft | 126 kts | 115° |
| 2026-05-05 19:07 | 50.61134 | -2.60044 | 2026 ft | 128 kts | 115° |
| 2026-05-05 19:07 | 50.60696 | -2.58829 | 2023 ft | 129 kts | 115° |
| 2026-05-05 19:07 | 50.60251 | -2.57585 | 2015 ft | 130 kts | 115° |
| 2026-05-05 19:07 | 50.59757 | -2.56378 | 2011 ft | 131 kts | 120° |
| 2026-05-05 19:08 | 50.59235 | -2.55199 | 2008 ft | 131 kts | 121° |
| 2026-05-05 19:08 | 50.58707 | -2.54008 | 2001 ft | 132 kts | 121° |
| 2026-05-05 19:08 | 50.58182 | -2.52820 | 1998 ft | 132 kts | 121° |
| 2026-05-05 19:08 | 50.57657 | -2.51630 | 1990 ft | 129 kts | 121° |
| 2026-05-05 19:09 | 50.57154 | -2.50492 | 2000 ft | 124 kts | 121° |
| 2026-05-05 19:09 | 50.56665 | -2.49379 | 2008 ft | 121 kts | 117° |
| 2026-05-05 19:09 | 50.56402 | -2.48165 | 2025 ft | 114 kts | 94° |
| 2026-05-05 19:09 | 50.56309 | -2.46944 | 2021 ft | 112 kts | 86° |
| 2026-05-05 19:10 | 50.56510 | -2.45808 | 2043 ft | 104 kts | 60° |
| 2026-05-05 19:10 | 50.56823 | -2.44773 | 2029 ft | 105 kts | 58° |
| 2026-05-05 19:10 | 50.57148 | -2.43732 | 2032 ft | 104 kts | 58° |
| 2026-05-05 19:10 | 50.57473 | -2.42707 | 2033 ft | 104 kts | 53° |
| 2026-05-05 19:11 | 50.57984 | -2.41957 | 2028 ft | 100 kts | 25° |
| 2026-05-05 19:11 | 50.58605 | -2.41479 | 2044 ft | 101 kts | 21° |
| 2026-05-05 19:11 | 50.59273 | -2.41005 | 2065 ft | 107 kts | 21° |
| 2026-05-05 19:11 | 50.59982 | -2.40507 | 2071 ft | 113 kts | 21° |
| 2026-05-05 19:12 | 50.60710 | -2.39997 | 2072 ft | 117 kts | 21° |
| 2026-05-05 19:12 | 50.61469 | -2.39474 | 2064 ft | 119 kts | 18° |
| 2026-05-05 19:12 | 50.62261 | -2.39054 | 2027 ft | 118 kts | 15° |
| 2026-05-05 19:12 | 50.63036 | -2.38667 | 1983 ft | 111 kts | 15° |
| 2026-05-05 19:13 | 50.63745 | -2.38312 | 1979 ft | 101 kts | 14° |
| 2026-05-05 19:13 | 50.64385 | -2.37990 | 1999 ft | 94 kts | 14° |
| 2026-05-05 19:13 | 50.64908 | -2.37382 | 2017 ft | 98 kts | 50° |
| 2026-05-05 19:13 | 50.65263 | -2.36438 | 2046 ft | 104 kts | 56° |
| 2026-05-05 19:14 | 50.65542 | -2.35319 | 2079 ft | 115 kts | 71° |
| 2026-05-05 19:14 | 50.65659 | -2.33968 | 2088 ft | 128 kts | 84° |
| 2026-05-05 19:14 | 50.65671 | -2.32512 | 2089 ft | 136 kts | 86° |
| 2026-05-05 19:14 | 50.65675 | -2.30969 | 2082 ft | 141 kts | 86° |
| 2026-05-05 19:15 | 50.65680 | -2.29413 | 2073 ft | 145 kts | 86° |
| 2026-05-05 19:15 | 50.65687 | -2.27789 | 2062 ft | 145 kts | 86° |
| 2026-05-05 19:15 | 50.65693 | -2.26185 | 2007 ft | 143 kts | 86° |
| 2026-05-05 19:15 | 50.65642 | -2.24629 | 1976 ft | 138 kts | 94° |
| 2026-05-05 19:16 | 50.65507 | -2.23172 | 1984 ft | 132 kts | 95° |
| 2026-05-05 19:16 | 50.65372 | -2.21788 | 1990 ft | 127 kts | 95° |
| 2026-05-05 19:16 | 50.65254 | -2.20597 | 1990 ft | 124 kts | 95° |
| 2026-05-05 19:16 | 50.65118 | -2.19257 | 1993 ft | 120 kts | 95° |
| 2026-05-05 19:17 | 50.64956 | -2.17970 | 2000 ft | 118 kts | 99° |
| 2026-05-05 19:17 | 50.64759 | -2.16715 | 2004 ft | 116 kts | 100° |
| 2026-05-05 19:17 | 50.64607 | -2.15481 | 2009 ft | 114 kts | 91° |
| 2026-05-05 19:17 | 50.64538 | -2.14244 | 2017 ft | 112 kts | 90° |
| 2026-05-05 19:18 | 50.64475 | -2.13005 | 2025 ft | 112 kts | 90° |
| 2026-05-05 19:18 | 50.64413 | -2.11776 | 2029 ft | 112 kts | 90° |
| 2026-05-05 19:18 | 50.64350 | -2.10526 | 2028 ft | 112 kts | 90° |
| 2026-05-05 19:18 | 50.64288 | -2.09305 | 2031 ft | 112 kts | 90° |
| 2026-05-05 19:19 | 50.64224 | -2.08043 | 2031 ft | 113 kts | 90° |
| 2026-05-05 19:19 | 50.64162 | -2.06808 | 2032 ft | 113 kts | 90° |
| 2026-05-05 19:19 | 50.64099 | -2.05569 | 2027 ft | 113 kts | 90° |
| 2026-05-05 19:19 | 50.64038 | -2.04353 | 2027 ft | 112 kts | 90° |
| 2026-05-05 19:20 | 50.63974 | -2.03102 | 2026 ft | 112 kts | 90° |
| 2026-05-05 19:20 | 50.63966 | -2.01891 | 2017 ft | 110 kts | 77° |
| 2026-05-05 19:20 | 50.64118 | -2.00701 | 2024 ft | 107 kts | 72° |
| 2026-05-05 19:20 | 50.64286 | -1.99544 | 2021 ft | 107 kts | 72° |
| 2026-05-05 19:21 | 50.64453 | -1.98405 | 2023 ft | 107 kts | 72° |
| 2026-05-05 19:21 | 50.64622 | -1.97251 | 2028 ft | 106 kts | 72° |
| 2026-05-05 19:21 | 50.64789 | -1.96113 | 2027 ft | 106 kts | 72° |
| 2026-05-05 19:21 | 50.64975 | -1.94986 | 2023 ft | 107 kts | 59° |
| 2026-05-05 19:22 | 50.65561 | -1.94229 | 2094 ft | 118 kts | 13° |
| 2026-05-05 19:22 | 50.66460 | -1.94102 | 2157 ft | 143 kts | 360° |
| 2026-05-05 19:22 | 50.67551 | -1.94101 | 2168 ft | 162 kts | 359° |
| 2026-05-05 19:22 | 50.68722 | -1.94121 | 2126 ft | 174 kts | 356° |
| 2026-05-05 19:23 | 50.69913 | -1.94772 | 2053 ft | 175 kts | 335° |
| 2026-05-05 19:23 | 50.70979 | -1.95599 | 1975 ft | 167 kts | 334° |
| 2026-05-05 19:23 | 50.72012 | -1.96425 | 1962 ft | 157 kts | 333° |
| 2026-05-05 19:23 | 50.72960 | -1.97187 | 1945 ft | 149 kts | 333° |
| 2026-05-05 19:24 | 50.73886 | -1.97932 | 1958 ft | 139 kts | 333° |
| 2026-05-05 19:24 | 50.74725 | -1.98609 | 1935 ft | 129 kts | 333° |
| 2026-05-05 19:24 | 50.75490 | -1.99227 | 1924 ft | 110 kts | 334° |
| 2026-05-05 19:24 | 50.76234 | -1.99418 | 1355 ft | 111 kts | 19° |
| 2026-05-05 19:25 | 50.76557 | -1.98327 | 1111 ft | 114 kts | 103° |
| 2026-05-05 19:25 | 50.76167 | -1.97196 | 986 ft | 114 kts | 116° |
| 2026-05-05 19:25 | 50.75998 | -1.96104 | 946 ft | 96 kts | 80° |
| 2026-05-05 19:25 | 50.76133 | -1.95076 | 937 ft | 89 kts | 71° |
| 2026-05-05 19:26 | 50.76293 | -1.94125 | 973 ft | 90 kts | 70° |
| 2026-05-05 19:26 | 50.76443 | -1.93137 | 1003 ft | 92 kts | 71° |
| 2026-05-05 19:26 | 50.76604 | -1.92159 | 1015 ft | 88 kts | 68° |
| 2026-05-05 19:26 | 50.76767 | -1.91234 | 1025 ft | 83 kts | 68° |
| 2026-05-05 19:27 | 50.76940 | -1.90344 | 931 ft | 86 kts | 68° |
| 2026-05-05 19:27 | 50.77105 | -1.89428 | 760 ft | 81 kts | 70° |
| 2026-05-05 19:27 | 50.77246 | -1.88593 | 592 ft | 76 kts | 71° |
| 2026-05-05 19:27 | 50.77381 | -1.87787 | 457 ft | 72 kts | 69° |
| 2026-05-05 19:28 | 50.77506 | -1.87074 | 405 ft | 68 kts | 69° |
| 2026-05-05 19:28 | 50.77639 | -1.86341 | 272 ft | 68 kts | 69° |
| 2026-05-05 19:28 | 50.77768 | -1.85631 | 140 ft | 67 kts | 70° |
| 2026-05-05 19:28 | 50.77898 | -1.84851 | 169 ft | 86 kts | 71° |
| 2026-05-05 19:29 | 50.78068 | -1.83793 | 287 ft | 107 kts | 72° |
| 2026-05-05 19:29 | 50.78268 | -1.82614 | 399 ft | 111 kts | 70° |
| 2026-05-05 19:29 | 50.78566 | -1.81535 | 615 ft | 101 kts | 40° |
| 2026-05-05 19:29 | 50.79183 | -1.81253 | 815 ft | 99 kts | 342° |
| 2026-05-05 19:30 | 50.79688 | -1.82129 | 969 ft | 124 kts | 282° |
| 2026-05-05 19:30 | 50.79573 | -1.83559 | 1164 ft | 122 kts | 262° |
| 2026-05-05 19:30 | 50.79411 | -1.84854 | 1254 ft | 120 kts | 259° |
| 2026-05-05 19:30 | 50.79198 | -1.86190 | 1267 ft | 123 kts | 258° |
| 2026-05-05 19:31 | 50.78971 | -1.87509 | 1328 ft | 123 kts | 256° |
| 2026-05-05 19:31 | 50.78739 | -1.88830 | 1366 ft | 123 kts | 256° |
| 2026-05-05 19:31 | 50.78781 | -1.90151 | 1350 ft | 120 kts | 297° |
| 2026-05-05 19:31 | 50.79321 | -1.91083 | 1433 ft | 109 kts | 332° |
| 2026-05-05 19:32 | 50.80081 | -1.91310 | 1377 ft | 115 kts | 5° |
| 2026-05-05 19:32 | 50.80798 | -1.90684 | 1306 ft | 123 kts | 52° |
| 2026-05-05 19:32 | 50.80853 | -1.89325 | 1252 ft | 130 kts | 117° |
| 2026-05-05 19:32 | 50.80077 | -1.88588 | 1236 ft | 125 kts | 157° |
| 2026-05-05 19:33 | 50.79256 | -1.88366 | 1166 ft | 117 kts | 201° |
| 2026-05-05 19:33 | 50.78793 | -1.89347 | 1046 ft | 112 kts | 262° |
| 2026-05-05 19:33 | 50.78920 | -1.90472 | 1158 ft | 98 kts | 303° |
| 2026-05-05 19:33 | 50.79393 | -1.91261 | 1203 ft | 99 kts | 322° |
| 2026-05-05 19:34 | 50.80033 | -1.91687 | 1245 ft | 101 kts | 1° |
| 2026-05-05 19:34 | 50.80654 | -1.91020 | 1189 ft | 115 kts | 57° |
| 2026-05-05 19:34 | 50.80687 | -1.89707 | 1084 ft | 134 kts | 115° |
| 2026-05-05 19:35 | 50.78935 | -1.89257 | 1189 ft | 124 kts | 191° |
| 2026-05-05 19:35 | 50.78114 | -1.89759 | 1168 ft | 128 kts | 218° |
| 2026-05-05 19:35 | 50.77654 | -1.90935 | 1129 ft | 125 kts | 268° |
| 2026-05-05 19:35 | 50.78056 | -1.92058 | 1134 ft | 118 kts | 334° |
| 2026-05-05 19:36 | 50.78828 | -1.92189 | 1276 ft | 107 kts | 9° |
| 2026-05-05 19:36 | 50.79382 | -1.91403 | 1300 ft | 102 kts | 73° |
| 2026-05-05 19:36 | 50.79080 | -1.90465 | 1093 ft | 105 kts | 156° |
| 2026-05-05 19:36 | 50.78476 | -1.90841 | 907 ft | 96 kts | 237° |
| 2026-05-05 19:37 | 50.77947 | -1.91784 | 780 ft | 118 kts | 222° |
| 2026-05-05 19:37 | 50.77195 | -1.92085 | 833 ft | 94 kts | 160° |
| 2026-05-05 19:37 | 50.76835 | -1.91362 | 705 ft | 78 kts | 88° |
| 2026-05-05 19:37 | 50.76907 | -1.90601 | 759 ft | 65 kts | 69° |
| 2026-05-05 19:38 | 50.77010 | -1.89901 | 824 ft | 63 kts | 68° |
| 2026-05-05 19:38 | 50.77118 | -1.89221 | 876 ft | 67 kts | 67° |
| 2026-05-05 19:38 | 50.77239 | -1.88484 | 918 ft | 67 kts | 67° |
| 2026-05-05 19:38 | 50.77363 | -1.87743 | 878 ft | 69 kts | 68° |
| 2026-05-05 19:39 | 50.77491 | -1.87006 | 567 ft | 71 kts | 66° |
| 2026-05-05 19:39 | 50.77636 | -1.86287 | 325 ft | 65 kts | 66° |
| 2026-05-05 19:39 | 50.77768 | -1.85590 | 133 ft | 66 kts | 67° |
| 2026-05-05 19:39 | 50.77896 | -1.84909 | 38 ft | 64 kts | 71° |
| 2026-05-05 19:40 | 50.77999 | -1.84301 | 36 ft | 46 kts | 75° |
| 2026-05-05 19:40 | 50.78063 | -1.83940 | 34 ft | 15 kts | 53° |
| 2026-05-05 19:40 | 50.78140 | -1.83930 | 34 ft | 9 kts | 344° |
| 2026-05-05 19:40 | 50.78196 | -1.83961 | 34 ft | 0 kts | 345° |
| 2026-05-05 19:41 | 50.78203 | -1.83964 | 34 ft | 2 kts | 345° |
| 2026-05-05 19:41 | 50.78239 | -1.83977 | 34 ft | 12 kts | 345° |
| 2026-05-05 19:42 | 50.78382 | -1.84031 | 34 ft | 14 kts | 345° |
| 2026-05-05 19:42 | 50.78471 | -1.84066 | 34 ft | 11 kts | 348° |
| 2026-05-05 19:42 | 50.78556 | -1.84102 | 34 ft | 13 kts | 345° |
| 2026-05-05 19:42 | 50.78656 | -1.84142 | 34 ft | 14 kts | 343° |
| 2026-05-05 19:43 | 50.78817 | -1.84219 | 34 ft | 19 kts | 320° |
| 2026-05-05 19:43 | 50.78799 | -1.84361 | 34 ft | 13 kts | 245° |
| 2026-05-05 19:43 | 50.78751 | -1.84465 | 35 ft | 7 kts | 173° |
| 2026-05-05 19:43 | 50.78704 | -1.84459 | 35 ft | 7 kts | 175° |
| 2026-05-05 19:44 | 50.78641 | -1.84459 | 36 ft | 9 kts | 219° |
| 2026-05-05 19:44 | 50.78610 | -1.84492 | 37 ft | 0 kts | 150° |
| 2026-05-05 19:44 | 50.78609 | -1.84487 | 37 ft | 0 kts | 84° |